createdAt,value
2017-09-24T00:01:52.373Z,94.90
2017-09-24T00:04:19.836Z,94.90
2017-09-24T00:06:47.356Z,94.70
2017-09-24T00:09:14.795Z,94.40
2017-09-24T00:11:42.307Z,94.30
2017-09-24T00:14:09.719Z,94.50
2017-09-24T00:16:37.902Z,94.50
2017-09-24T00:19:06.115Z,94.70
2017-09-24T00:21:33.535Z,94.60
2017-09-24T00:24:00.950Z,94.40
2017-09-24T00:26:28.382Z,94.30
2017-09-24T00:28:55.799Z,94.10
2017-09-24T00:31:23.238Z,94.10
2017-09-24T00:33:51.426Z,93.60
2017-09-24T00:36:19.616Z,93.50
2017-09-24T00:38:47.027Z,93.50
2017-09-24T00:41:15.604Z,93.20
2017-09-24T00:43:43.127Z,93.30
2017-09-24T00:46:10.551Z,93.20
2017-09-24T00:48:38.743Z,93.00
2017-09-24T00:51:06.214Z,93.00
2017-09-24T00:53:33.647Z,93.10
2017-09-24T00:56:01.822Z,93.20
2017-09-24T00:58:29.238Z,93.20
2017-09-24T01:00:56.666Z,93.10
2017-09-24T01:03:24.107Z,93.10
2017-09-24T01:05:51.523Z,93.10
2017-09-24T01:08:19.709Z,92.90
2017-09-24T01:10:48.010Z,92.80
2017-09-24T01:13:15.472Z,92.80
2017-09-24T01:15:42.927Z,93.00
2017-09-24T01:18:10.489Z,93.00
2017-09-24T01:20:41.528Z,93.10
2017-09-24T01:23:08.943Z,93.00
2017-09-24T01:25:37.634Z,93.00
2017-09-24T01:28:05.839Z,92.90
2017-09-24T01:30:33.301Z,92.90
2017-09-24T01:33:00.756Z,93.10
2017-09-24T01:35:28.211Z,93.10
2017-09-24T01:37:55.721Z,93.00
2017-09-24T01:40:23.225Z,93.00
2017-09-24T01:42:50.654Z,93.10
2017-09-24T01:45:18.838Z,93.00
2017-09-24T01:47:46.269Z,93.00
2017-09-24T01:50:14.456Z,93.70
2017-09-24T01:52:42.663Z,93.90
2017-09-24T01:55:10.090Z,93.90
2017-09-24T01:57:37.514Z,93.70
2017-09-24T02:00:05.030Z,93.60
2017-09-24T02:02:32.487Z,93.60
2017-09-24T02:04:59.903Z,93.70
2017-09-24T02:07:28.091Z,93.70
2017-09-24T02:09:55.523Z,93.70
2017-09-24T02:12:22.939Z,93.90
2017-09-24T02:14:50.358Z,94.10
2017-09-24T02:17:17.836Z,93.60
2017-09-24T02:19:45.254Z,93.50
2017-09-24T02:22:13.468Z,93.70
2017-09-24T02:24:41.415Z,93.70
2017-09-24T02:27:09.612Z,94.00
2017-09-24T02:29:37.023Z,94.00
2017-09-24T02:32:05.235Z,94.10
2017-09-24T02:34:32.657Z,93.80
2017-09-24T02:37:00.186Z,94.20
2017-09-24T02:39:27.719Z,94.00
2017-09-24T02:41:55.133Z,94.00
2017-09-24T02:44:23.309Z,94.10
2017-09-24T02:46:51.487Z,94.00
2017-09-24T02:49:19.693Z,94.10
2017-09-24T02:51:47.160Z,94.20
2017-09-24T02:54:14.574Z,94.10
2017-09-24T02:56:42.781Z,94.30
2017-09-24T02:59:10.239Z,94.30
2017-09-24T03:01:37.653Z,94.20
2017-09-24T03:04:05.823Z,94.00
2017-09-24T03:06:34.030Z,93.90
2017-09-24T03:09:01.912Z,94.00
2017-09-24T03:11:29.321Z,94.00
2017-09-24T03:13:57.498Z,93.90
2017-09-24T03:16:25.683Z,94.10
2017-09-24T03:18:53.198Z,94.00
2017-09-24T03:21:20.720Z,94.10
2017-09-24T03:23:48.143Z,94.00
2017-09-24T03:26:16.322Z,93.90
2017-09-24T03:28:44.523Z,93.70
2017-09-24T03:31:11.983Z,93.70
2017-09-24T03:33:39.405Z,93.90
2017-09-24T03:36:09.022Z,93.90
2017-09-24T03:38:36.443Z,93.90
2017-09-24T03:41:04.158Z,93.80
2017-09-24T03:43:31.593Z,93.90
2017-09-24T03:45:59.011Z,93.90
2017-09-24T03:48:26.525Z,94.10
2017-09-24T03:50:53.947Z,94.20
2017-09-24T03:53:21.362Z,94.10
2017-09-24T03:55:48.779Z,94.10
2017-09-24T03:58:16.194Z,94.20
2017-09-24T04:00:44.123Z,94.10
2017-09-24T04:03:11.538Z,94.10
2017-09-24T04:05:39.727Z,94.30
2017-09-24T04:08:07.154Z,94.20
2017-09-24T04:10:36.104Z,94.30
2017-09-24T04:13:03.520Z,94.30
2017-09-24T04:15:31.704Z,94.20
2017-09-24T04:17:59.199Z,94.20
2017-09-24T04:20:26.621Z,94.40
2017-09-24T04:22:55.219Z,94.40
2017-09-24T04:25:22.683Z,94.40
2017-09-24T04:27:50.088Z,94.40
2017-09-24T04:30:18.290Z,94.90
2017-09-24T04:32:46.470Z,94.40
2017-09-24T04:35:13.931Z,94.30
2017-09-24T04:37:41.391Z,94.50
2017-09-24T04:40:08.827Z,94.40
2017-09-24T04:42:37.338Z,94.30
2017-09-24T04:45:04.763Z,94.30
2017-09-24T04:47:32.178Z,94.20
2017-09-24T04:49:59.598Z,94.20
2017-09-24T04:52:27.056Z,94.10
2017-09-24T04:54:54.481Z,94.20
2017-09-24T04:57:22.690Z,94.30
2017-09-24T04:59:50.094Z,94.20
2017-09-24T05:02:18.275Z,95.00
2017-09-24T05:04:46.470Z,94.70
2017-09-24T05:07:13.891Z,94.70
2017-09-24T05:09:41.403Z,94.80
2017-09-24T05:12:08.819Z,95.00
2017-09-24T05:14:37.007Z,95.50
2017-09-24T05:17:04.430Z,95.50
2017-09-24T05:19:32.554Z,95.70
2017-09-24T05:22:00.318Z,95.90
2017-09-24T05:24:27.743Z,95.60
2017-09-24T05:26:55.937Z,95.60
2017-09-24T05:29:23.417Z,95.60
2017-09-24T05:31:50.830Z,95.40
2017-09-24T05:34:19.011Z,95.20
2017-09-24T05:36:47.197Z,95.70
2017-09-24T05:39:14.603Z,95.70
2017-09-24T05:41:42.028Z,96.00
2017-09-24T05:44:09.447Z,95.80
2017-09-24T05:46:37.641Z,95.90
2017-09-24T05:49:05.650Z,95.90
2017-09-24T05:51:33.070Z,95.60
2017-09-24T05:54:00.560Z,95.30
2017-09-24T05:56:27.962Z,95.60
2017-09-24T05:58:56.680Z,95.60
2017-09-24T06:01:24.266Z,95.50
2017-09-24T06:03:51.683Z,95.70
2017-09-24T06:06:19.148Z,95.40
2017-09-24T06:08:46.615Z,95.30
2017-09-24T06:11:14.044Z,95.40
2017-09-24T06:13:41.456Z,95.30
2017-09-24T06:16:09.911Z,95.40
2017-09-24T06:18:37.339Z,95.30
2017-09-24T06:21:04.750Z,95.40
2017-09-24T06:23:33.675Z,95.40
2017-09-24T06:26:01.091Z,95.40
2017-09-24T06:28:28.628Z,95.00
2017-09-24T06:30:56.056Z,94.80
2017-09-24T06:33:23.459Z,94.80
2017-09-24T06:35:50.870Z,94.60
2017-09-24T06:38:18.290Z,94.40
2017-09-24T06:40:47.011Z,94.40
2017-09-24T06:43:14.476Z,94.40
2017-09-24T06:45:41.922Z,94.40
2017-09-24T06:48:09.896Z,94.20
2017-09-24T06:50:37.299Z,94.20
2017-09-24T06:53:04.726Z,94.30
2017-09-24T06:55:32.135Z,94.20
2017-09-24T06:58:00.335Z,94.10
2017-09-24T07:00:27.795Z,94.10
2017-09-24T07:02:55.215Z,94.10
2017-09-24T07:05:23.398Z,94.20
2017-09-24T07:07:51.603Z,94.10
2017-09-24T07:10:19.019Z,94.10
2017-09-24T07:12:47.978Z,94.00
2017-09-24T07:15:15.408Z,93.90
2017-09-24T07:17:42.869Z,93.80
2017-09-24T07:20:10.731Z,93.80
2017-09-24T07:22:38.591Z,93.60
2017-09-24T07:25:06.007Z,93.60
2017-09-24T07:27:34.231Z,93.20
2017-09-24T07:30:01.645Z,93.20
2017-09-24T07:32:29.823Z,93.20
2017-09-24T07:34:58.024Z,93.00
2017-09-24T07:37:25.436Z,93.00
2017-09-24T07:39:52.941Z,92.90
2017-09-24T07:42:21.324Z,92.90
2017-09-24T07:44:48.779Z,92.90
2017-09-24T07:47:16.232Z,92.80
2017-09-24T07:49:44.254Z,92.80
2017-09-24T07:52:12.501Z,92.50
2017-09-24T07:54:39.933Z,92.50
2017-09-24T07:57:07.346Z,92.40
2017-09-24T07:59:35.564Z,92.20
2017-09-24T08:02:03.022Z,92.20
2017-09-24T08:04:31.304Z,92.20
2017-09-24T08:06:58.746Z,92.50
2017-09-24T08:09:26.206Z,92.40
2017-09-24T08:11:53.658Z,92.50
2017-09-24T08:14:21.103Z,93.00
2017-09-24T08:16:48.694Z,93.10
2017-09-24T08:19:16.119Z,93.60
2017-09-24T08:21:43.586Z,93.70
2017-09-24T08:24:11.010Z,93.90
2017-09-24T08:26:39.195Z,94.00
2017-09-24T08:29:07.371Z,94.50
2017-09-24T08:31:34.787Z,94.50
2017-09-24T08:34:02.198Z,94.30
2017-09-24T08:36:29.613Z,94.10
2017-09-24T08:38:57.598Z,94.30
2017-09-24T08:41:25.799Z,93.90
2017-09-24T08:43:53.366Z,93.90
2017-09-24T08:46:20.828Z,94.30
2017-09-24T08:48:48.232Z,95.00
2017-09-24T08:51:15.992Z,95.00
2017-09-24T08:53:43.406Z,95.10
2017-09-24T08:56:10.863Z,95.30
2017-09-24T08:58:38.309Z,95.70
2017-09-24T09:01:05.763Z,96.20
2017-09-24T09:03:33.732Z,95.90
2017-09-24T09:06:02.017Z,96.50
2017-09-24T09:08:29.430Z,95.90
2017-09-24T09:10:57.714Z,95.80
2017-09-24T09:13:25.912Z,95.70
2017-09-24T09:15:53.779Z,95.70
2017-09-24T09:18:21.207Z,96.10
2017-09-24T09:20:49.386Z,96.60
2017-09-24T09:23:16.805Z,96.60
2017-09-24T09:25:44.320Z,96.50
2017-09-24T09:28:11.738Z,96.10
2017-09-24T09:30:39.232Z,95.60
2017-09-24T09:33:18.511Z,96.00
2017-09-24T09:35:45.927Z,96.10
2017-09-24T09:38:13.394Z,97.00
2017-09-24T09:40:40.803Z,97.10
2017-09-24T09:43:08.986Z,97.30
2017-09-24T09:45:48.200Z,97.30
2017-09-24T09:48:17.691Z,97.10
2017-09-24T09:50:46.659Z,97.30
2017-09-24T09:53:14.095Z,97.20
2017-09-24T09:55:41.527Z,97.10
2017-09-24T09:58:08.947Z,97.80
2017-09-24T10:00:37.183Z,98.50
2017-09-24T10:03:04.950Z,98.60
2017-09-24T10:05:32.394Z,98.80
2017-09-24T10:08:09.793Z,98.30
2017-09-24T10:10:37.212Z,98.40
2017-09-24T10:13:05.394Z,97.90
2017-09-24T10:15:33.565Z,97.90
2017-09-24T10:18:02.390Z,98.10
2017-09-24T10:20:30.222Z,98.10
2017-09-24T10:22:59.011Z,98.50
2017-09-24T10:25:27.218Z,98.60
2017-09-24T10:27:54.675Z,98.60
2017-09-24T10:30:34.081Z,98.40
2017-09-24T10:33:01.563Z,98.40
2017-09-24T10:35:28.992Z,98.90
2017-09-24T10:37:57.192Z,98.60
2017-09-24T10:40:25.426Z,99.10
2017-09-24T10:42:52.870Z,99.10
2017-09-24T10:45:20.355Z,99.20
2017-09-24T10:47:48.585Z,98.90
2017-09-24T10:50:15.987Z,98.90
2017-09-24T10:52:43.402Z,99.10
2017-09-24T10:55:11.574Z,99.40
2017-09-24T10:57:38.996Z,99.40
2017-09-24T11:00:06.406Z,99.30
2017-09-24T11:02:34.591Z,99.90
2017-09-24T11:05:03.587Z,99.90
2017-09-24T11:07:31.068Z,99.90
2017-09-24T11:09:58.484Z,99.90
2017-09-24T11:12:26.769Z,99.90
2017-09-24T11:14:54.251Z,99.90
2017-09-24T11:17:21.789Z,99.90
2017-09-24T11:19:49.271Z,99.90
2017-09-24T11:22:16.735Z,99.90
2017-09-24T11:24:44.246Z,99.90
2017-09-24T11:27:11.659Z,99.90
2017-09-24T11:29:39.113Z,99.90
2017-09-24T11:32:06.578Z,99.90
2017-09-24T11:34:34.043Z,99.90
2017-09-24T11:37:01.467Z,99.90
2017-09-24T11:39:28.911Z,99.90
2017-09-24T11:41:56.399Z,99.90
2017-09-24T11:44:23.885Z,99.90
2017-09-24T11:46:51.316Z,99.90
2017-09-24T11:49:18.801Z,99.90
2017-09-24T11:51:46.238Z,99.90
2017-09-24T11:54:13.993Z,99.90
2017-09-24T11:56:41.417Z,99.90
2017-09-24T12:00:31.564Z,99.90
2017-09-24T12:02:59.119Z,99.90
2017-09-24T12:05:26.563Z,99.90
2017-09-24T12:07:54.006Z,99.90
2017-09-24T12:10:21.464Z,99.90
2017-09-24T12:12:48.909Z,99.90
2017-09-24T12:15:16.515Z,99.90
2017-09-24T12:17:44.024Z,99.90
2017-09-24T12:20:11.611Z,99.90
2017-09-24T12:22:39.101Z,99.90
2017-09-24T12:25:06.560Z,99.90
2017-09-24T12:27:34.193Z,99.90
2017-09-24T12:30:01.669Z,99.90
2017-09-24T12:32:30.683Z,99.90
2017-09-24T12:34:58.968Z,99.90
2017-09-24T12:37:26.598Z,99.90
2017-09-24T12:39:54.218Z,99.90
2017-09-24T12:42:21.723Z,99.90
2017-09-24T12:44:50.028Z,99.90
2017-09-24T12:47:18.387Z,99.90
2017-09-24T12:49:46.662Z,99.90
2017-09-24T12:52:14.948Z,99.90
2017-09-24T12:54:43.221Z,99.90
2017-09-24T12:57:10.796Z,99.90
2017-09-24T12:59:38.318Z,99.90
2017-09-24T13:02:05.745Z,99.90
2017-09-24T13:04:33.212Z,99.90
2017-09-24T13:07:00.679Z,99.90
2017-09-24T13:09:28.286Z,99.90
2017-09-24T13:11:56.147Z,99.90
2017-09-24T13:14:24.371Z,99.90
2017-09-24T13:16:51.852Z,99.90
2017-09-24T13:19:20.156Z,99.90
2017-09-24T13:21:47.673Z,99.90
2017-09-24T13:24:15.347Z,99.90
2017-09-24T13:26:43.676Z,99.90
2017-09-24T13:29:11.167Z,99.90
2017-09-24T13:31:39.391Z,99.90
2017-09-24T13:34:07.810Z,99.90
2017-09-24T13:36:35.345Z,99.90
2017-09-24T13:39:02.846Z,99.90
2017-09-24T13:41:31.204Z,99.90
2017-09-24T13:43:58.680Z,99.90
2017-09-24T13:46:26.960Z,99.90
2017-09-24T13:48:55.164Z,99.90
2017-09-24T13:51:22.633Z,99.90
2017-09-24T13:53:50.090Z,99.90
2017-09-24T13:56:17.585Z,99.90
2017-09-24T13:58:45.026Z,99.90
2017-09-24T14:01:12.703Z,99.90
2017-09-24T14:03:40.173Z,99.90
2017-09-24T14:06:07.914Z,99.90
2017-09-24T14:08:35.335Z,99.90
2017-09-24T14:11:02.810Z,99.90
2017-09-24T14:13:30.280Z,99.90
2017-09-24T14:15:57.759Z,99.90
2017-09-24T14:18:26.281Z,99.90
2017-09-24T14:20:54.503Z,99.90
2017-09-24T14:23:22.763Z,99.90
2017-09-24T14:25:50.412Z,99.90
2017-09-24T14:28:17.959Z,99.90
2017-09-24T14:30:45.365Z,99.90
2017-09-24T14:33:12.818Z,99.90
2017-09-24T14:35:40.345Z,99.90
2017-09-24T14:38:07.784Z,99.90
2017-09-24T14:40:35.227Z,99.90
2017-09-24T14:43:02.639Z,99.90
2017-09-24T14:45:30.488Z,99.90
2017-09-24T14:47:58.314Z,99.90
2017-09-24T14:50:26.280Z,99.90
2017-09-24T14:52:53.956Z,99.90
2017-09-24T14:55:21.362Z,99.90
2017-09-24T14:57:49.544Z,99.90
2017-09-24T15:00:17.860Z,99.90
2017-09-24T15:02:45.264Z,99.90
2017-09-24T15:05:13.060Z,99.90
2017-09-24T15:07:40.520Z,99.90
2017-09-24T15:10:07.936Z,99.90
2017-09-24T15:12:35.351Z,99.90
2017-09-24T15:15:02.755Z,99.90
2017-09-24T15:17:31.031Z,99.90
2017-09-24T15:19:59.247Z,99.90
2017-09-24T15:22:27.113Z,99.90
2017-09-24T15:24:54.572Z,99.90
2017-09-24T15:27:21.987Z,99.90
2017-09-24T15:29:50.168Z,99.90
2017-09-24T15:32:19.058Z,99.90
2017-09-24T15:34:47.255Z,99.90
2017-09-24T15:37:14.825Z,99.90
2017-09-24T15:39:42.277Z,99.90
2017-09-24T15:42:09.677Z,99.90
2017-09-24T15:44:37.087Z,99.90
2017-09-24T15:47:04.511Z,99.90
2017-09-24T15:49:32.726Z,99.90
2017-09-24T15:52:00.177Z,99.90
2017-09-24T15:54:27.585Z,99.90
2017-09-24T15:56:55.770Z,99.90
2017-09-24T15:59:23.962Z,99.90
2017-09-24T16:01:51.384Z,99.90
2017-09-24T16:04:18.983Z,99.90
2017-09-24T16:06:46.395Z,99.90
2017-09-24T16:09:13.811Z,99.90
2017-09-24T16:11:41.239Z,99.90
2017-09-24T16:14:08.750Z,99.90
2017-09-24T16:16:36.186Z,99.90
2017-09-24T16:19:03.619Z,99.90
2017-09-24T16:21:31.303Z,99.90
2017-09-24T16:23:58.751Z,99.90
2017-09-24T16:26:26.207Z,99.90
2017-09-24T16:28:53.631Z,99.90
2017-09-24T16:31:21.816Z,99.90
2017-09-24T16:33:49.246Z,99.90
2017-09-24T16:36:17.430Z,99.90
2017-09-24T16:38:45.609Z,99.90
2017-09-24T16:41:13.034Z,99.90
2017-09-24T16:43:40.458Z,99.90
2017-09-24T16:46:07.874Z,99.90
2017-09-24T16:48:35.384Z,99.90
2017-09-24T16:51:02.797Z,99.90
2017-09-24T16:53:30.223Z,99.90
2017-09-24T16:55:57.662Z,99.90
2017-09-24T16:58:25.178Z,99.90
2017-09-24T17:00:53.123Z,99.90
2017-09-24T17:03:21.325Z,99.90
2017-09-24T17:05:49.387Z,99.90
2017-09-24T17:08:16.803Z,99.90
2017-09-24T17:10:45.026Z,99.90
2017-09-24T17:13:12.507Z,99.90
2017-09-24T17:15:40.071Z,99.90
2017-09-24T17:18:07.492Z,99.90
2017-09-24T17:20:35.806Z,99.90
2017-09-24T17:23:03.279Z,99.90
2017-09-24T17:25:30.695Z,99.90
2017-09-24T17:27:58.207Z,99.90
2017-09-24T17:30:26.419Z,99.90
2017-09-24T17:32:53.898Z,99.90
2017-09-24T17:35:21.432Z,99.90
2017-09-24T17:37:49.459Z,99.90
2017-09-24T17:40:18.348Z,99.90
2017-09-24T17:42:46.531Z,99.90
2017-09-24T17:45:14.735Z,99.90
2017-09-24T17:47:42.150Z,99.90
2017-09-24T17:50:10.487Z,99.90
2017-09-24T17:52:37.928Z,99.90
2017-09-24T17:55:05.334Z,99.90
2017-09-24T17:57:32.954Z,99.90
2017-09-24T18:00:00.447Z,99.90
2017-09-24T18:02:28.633Z,99.90
2017-09-24T18:04:56.831Z,99.90
2017-09-24T18:07:24.915Z,99.90
2017-09-24T18:09:52.337Z,99.90
2017-09-24T18:12:21.444Z,99.90
2017-09-24T18:14:50.431Z,99.90
2017-09-24T18:17:18.615Z,99.90
2017-09-24T18:19:46.032Z,99.90
2017-09-24T18:22:13.467Z,99.90
2017-09-24T18:24:40.948Z,99.90
2017-09-24T18:27:08.397Z,99.90
2017-09-24T18:29:35.855Z,99.90
2017-09-24T18:32:03.338Z,99.90
2017-09-24T18:34:30.799Z,99.90
2017-09-24T18:36:58.336Z,99.90
2017-09-24T18:39:25.875Z,99.90
2017-09-24T18:41:53.507Z,99.90
2017-09-24T18:44:20.981Z,99.90
2017-09-24T18:46:49.249Z,99.90
2017-09-24T18:49:16.665Z,99.90
2017-09-24T18:51:45.228Z,99.90
2017-09-24T18:54:12.718Z,99.90
2017-09-24T18:56:40.162Z,99.90
2017-09-24T18:59:08.367Z,99.90
2017-09-24T19:01:35.776Z,99.90
2017-09-24T19:04:03.996Z,99.90
2017-09-24T19:06:31.407Z,99.90
2017-09-24T19:08:58.863Z,99.90
2017-09-24T19:11:26.271Z,99.90
2017-09-24T19:13:53.693Z,99.90
2017-09-24T19:16:21.116Z,99.90
2017-09-24T19:18:50.040Z,99.90
2017-09-24T19:21:17.447Z,99.90
2017-09-24T19:23:44.912Z,99.90
2017-09-24T19:26:12.433Z,99.90
2017-09-24T19:28:39.867Z,99.90
2017-09-24T19:31:07.302Z,99.90
2017-09-24T19:33:35.495Z,99.90
2017-09-24T19:36:02.921Z,99.90
2017-09-24T19:38:31.153Z,99.90
2017-09-24T19:40:58.597Z,99.90
2017-09-24T19:43:26.048Z,99.90
2017-09-24T19:45:53.470Z,99.90
2017-09-24T19:48:20.983Z,99.90
2017-09-24T19:50:49.222Z,99.90
2017-09-24T19:53:16.638Z,99.90
2017-09-24T19:55:44.056Z,99.90
2017-09-24T19:58:11.550Z,99.90
2017-09-24T20:00:38.947Z,99.90
2017-09-24T20:03:06.372Z,99.90
2017-09-24T20:05:33.799Z,99.90
2017-09-24T20:08:01.283Z,99.90
2017-09-24T20:10:28.697Z,99.90
2017-09-24T20:12:56.115Z,99.90
2017-09-24T20:15:24.294Z,99.90
2017-09-24T20:17:52.939Z,99.90
2017-09-24T20:20:20.395Z,99.90
2017-09-24T20:22:47.819Z,99.90
2017-09-24T20:25:15.239Z,99.90
2017-09-24T20:27:43.421Z,99.90
2017-09-24T20:30:11.739Z,99.90
2017-09-24T20:32:39.132Z,99.90
2017-09-24T20:35:06.736Z,99.90
2017-09-24T20:37:34.160Z,99.90
2017-09-24T20:40:02.372Z,99.90
2017-09-24T20:42:29.828Z,99.90
2017-09-24T20:44:57.284Z,99.90
2017-09-24T20:47:24.717Z,99.90
2017-09-24T20:49:52.223Z,99.90
2017-09-24T20:52:19.754Z,99.90
2017-09-24T20:54:47.169Z,99.90
2017-09-24T20:57:15.163Z,99.90
2017-09-24T20:59:42.855Z,99.90
2017-09-24T21:02:10.302Z,99.90
2017-09-24T21:04:37.725Z,99.90
2017-09-24T21:07:05.987Z,99.90
2017-09-24T21:09:34.313Z,99.90
2017-09-24T21:12:01.888Z,99.90
2017-09-24T21:14:29.334Z,99.90
2017-09-24T21:16:56.755Z,99.90
2017-09-24T21:19:24.174Z,99.90
2017-09-24T21:21:51.683Z,99.90
2017-09-24T21:24:19.564Z,99.90
2017-09-24T21:26:47.007Z,99.90
2017-09-24T21:29:14.422Z,99.90
2017-09-24T21:31:42.650Z,99.90
2017-09-24T21:34:10.100Z,99.90
2017-09-24T21:36:37.586Z,99.90
2017-09-24T21:39:05.771Z,99.90
2017-09-24T21:41:33.224Z,99.90
2017-09-24T21:44:00.737Z,99.90
2017-09-24T21:46:28.161Z,99.90
2017-09-24T21:48:55.666Z,99.90
2017-09-24T21:51:23.152Z,99.90
2017-09-24T21:53:50.570Z,99.90
2017-09-24T21:56:17.990Z,99.90
2017-09-24T21:58:46.251Z,99.90
2017-09-24T22:01:14.489Z,99.90
2017-09-24T22:03:41.933Z,99.90
2017-09-24T22:06:09.332Z,99.90
2017-09-24T22:08:36.801Z,99.90
2017-09-24T22:11:05.010Z,99.90
2017-09-24T22:13:32.423Z,99.90
2017-09-24T22:15:59.837Z,99.90
2017-09-24T22:18:27.258Z,99.90
2017-09-24T22:20:54.699Z,99.90
2017-09-24T22:23:22.271Z,99.90
2017-09-24T22:25:51.227Z,99.90
2017-09-24T22:28:18.678Z,99.90
2017-09-24T22:30:46.200Z,99.90
2017-09-24T22:33:13.888Z,99.90
2017-09-24T22:35:41.342Z,99.90
2017-09-24T22:38:08.784Z,99.90
2017-09-24T22:40:36.254Z,99.90
2017-09-24T22:43:03.900Z,99.90
2017-09-24T22:45:31.363Z,99.90
2017-09-24T22:47:59.166Z,99.90
2017-09-24T22:50:26.595Z,99.90
2017-09-24T22:52:54.090Z,99.90
2017-09-24T22:55:22.301Z,99.90
2017-09-24T22:57:50.648Z,99.90
2017-09-24T23:00:18.889Z,99.90
2017-09-24T23:02:46.303Z,99.90
2017-09-24T23:05:13.718Z,99.90
2017-09-24T23:07:41.902Z,99.90
2017-09-24T23:10:10.124Z,99.90
2017-09-24T23:12:37.614Z,99.90
2017-09-24T23:15:05.024Z,99.90
2017-09-24T23:17:32.515Z,99.90
2017-09-24T23:19:59.939Z,99.90
2017-09-24T23:22:27.360Z,99.90
2017-09-24T23:24:55.539Z,99.90
2017-09-24T23:27:23.018Z,99.90
2017-09-24T23:29:51.403Z,99.90
2017-09-24T23:32:18.874Z,99.90
2017-09-24T23:34:47.826Z,99.90
2017-09-24T23:37:15.280Z,99.90
2017-09-24T23:39:43.454Z,99.90
2017-09-24T23:42:10.987Z,99.90
2017-09-24T23:44:39.189Z,99.90
2017-09-24T23:47:06.676Z,99.90
2017-09-24T23:49:34.118Z,99.90
2017-09-24T23:52:01.535Z,99.90
2017-09-24T23:54:29.808Z,99.90
2017-09-24T23:56:57.306Z,99.90
2017-09-24T23:59:24.768Z,99.90
